Aviation Digital Data Service (ADDS)

Output produced by METARs form (1528 UTC 19 January 2018)
found at http://aviationweather.gov/adds/metars/
 
KLFK 191453Z AUTO 13003KT 10SM OVC044 04/M05 A3031 RMK AO2 SLP266 T00391050 50000